sensor_id;sensor_type;location;lat;lon;timestamp;P1;durP1;ratioP1;P2;durP2;ratioP2
49015;SDS011;34830;44.064;12.566;2023-06-19T00:01:43;11.43;;;7.55;;
49015;SDS011;34830;44.064;12.566;2023-06-19T00:04:10;9.85;;;7.18;;
49015;SDS011;34830;44.064;12.566;2023-06-19T00:06:36;9.23;;;6.57;;
49015;SDS011;34830;44.064;12.566;2023-06-19T00:09:01;11.30;;;7.93;;
49015;SDS011;34830;44.064;12.566;2023-06-19T00:11:28;7.72;;;6.50;;
49015;SDS011;34830;44.064;12.566;2023-06-19T00:13:54;10.40;;;7.35;;
49015;SDS011;34830;44.064;12.566;2023-06-19T00:16:20;10.80;;;7.20;;
49015;SDS011;34830;44.064;12.566;2023-06-19T00:18:46;10.70;;;6.13;;
49015;SDS011;34830;44.064;12.566;2023-06-19T00:21:12;11.95;;;7.60;;
49015;SDS011;34830;44.064;12.566;2023-06-19T00:23:37;12.35;;;8.02;;
49015;SDS011;34830;44.064;12.566;2023-06-19T00:26:03;9.75;;;7.25;;
49015;SDS011;34830;44.064;12.566;2023-06-19T00:28:29;8.82;;;6.60;;
49015;SDS011;34830;44.064;12.566;2023-06-19T00:30:55;10.25;;;6.38;;
49015;SDS011;34830;44.064;12.566;2023-06-19T00:33:21;10.35;;;7.18;;
49015;SDS011;34830;44.064;12.566;2023-06-19T00:35:49;9.02;;;6.72;;
49015;SDS011;34830;44.064;12.566;2023-06-19T00:38:16;8.45;;;6.60;;
49015;SDS011;34830;44.064;12.566;2023-06-19T00:40:42;6.97;;;6.28;;
49015;SDS011;34830;44.064;12.566;2023-06-19T00:43:08;10.27;;;6.70;;
49015;SDS011;34830;44.064;12.566;2023-06-19T00:45:34;8.77;;;6.30;;
49015;SDS011;34830;44.064;12.566;2023-06-19T00:48:00;7.80;;;6.28;;
49015;SDS011;34830;44.064;12.566;2023-06-19T00:50:27;9.00;;;6.80;;
49015;SDS011;34830;44.064;12.566;2023-06-19T00:52:53;8.40;;;6.75;;
49015;SDS011;34830;44.064;12.566;2023-06-19T00:55:19;9.93;;;6.85;;
49015;SDS011;34830;44.064;12.566;2023-06-19T00:57:46;9.90;;;6.72;;
49015;SDS011;34830;44.064;12.566;2023-06-19T01:00:12;9.43;;;6.57;;
49015;SDS011;34830;44.064;12.566;2023-06-19T01:02:38;7.68;;;6.57;;
49015;SDS011;34830;44.064;12.566;2023-06-19T01:05:04;7.95;;;6.13;;
49015;SDS011;34830;44.064;12.566;2023-06-19T01:07:44;7.85;;;5.78;;
49015;SDS011;34830;44.064;12.566;2023-06-19T01:10:21;9.02;;;7.00;;
49015;SDS011;34830;44.064;12.566;2023-06-19T01:12:52;7.53;;;6.38;;
49015;SDS011;34830;44.064;12.566;2023-06-19T01:15:19;7.60;;;6.32;;
49015;SDS011;34830;44.064;12.566;2023-06-19T01:17:45;9.40;;;7.25;;
49015;SDS011;34830;44.064;12.566;2023-06-19T01:20:12;9.82;;;6.40;;
49015;SDS011;34830;44.064;12.566;2023-06-19T01:22:38;7.75;;;6.40;;
49015;SDS011;34830;44.064;12.566;2023-06-19T01:25:05;9.63;;;7.05;;
49015;SDS011;34830;44.064;12.566;2023-06-19T01:27:31;10.75;;;6.45;;
49015;SDS011;34830;44.064;12.566;2023-06-19T01:29:59;10.43;;;6.75;;
49015;SDS011;34830;44.064;12.566;2023-06-19T01:32:32;10.00;;;6.55;;
49015;SDS011;34830;44.064;12.566;2023-06-19T01:35:00;10.07;;;6.40;;
49015;SDS011;34830;44.064;12.566;2023-06-19T01:37:27;10.50;;;6.38;;
49015;SDS011;34830;44.064;12.566;2023-06-19T01:39:55;7.45;;;6.43;;
49015;SDS011;34830;44.064;12.566;2023-06-19T01:42:21;10.68;;;6.70;;
49015;SDS011;34830;44.064;12.566;2023-06-19T01:44:47;9.10;;;6.82;;
49015;SDS011;34830;44.064;12.566;2023-06-19T01:47:13;12.10;;;6.90;;
49015;SDS011;34830;44.064;12.566;2023-06-19T01:49:41;9.80;;;6.57;;
49015;SDS011;34830;44.064;12.566;2023-06-19T01:52:07;9.02;;;6.72;;
49015;SDS011;34830;44.064;12.566;2023-06-19T01:54:34;8.57;;;6.63;;
49015;SDS011;34830;44.064;12.566;2023-06-19T01:56:59;10.85;;;7.07;;
49015;SDS011;34830;44.064;12.566;2023-06-19T01:59:25;7.22;;;6.18;;
49015;SDS011;34830;44.064;12.566;2023-06-19T02:01:51;9.45;;;6.57;;
49015;SDS011;34830;44.064;12.566;2023-06-19T02:04:17;9.10;;;6.43;;
49015;SDS011;34830;44.064;12.566;2023-06-19T02:06:42;8.43;;;5.80;;
49015;SDS011;34830;44.064;12.566;2023-06-19T02:09:08;7.25;;;6.07;;
49015;SDS011;34830;44.064;12.566;2023-06-19T02:11:37;7.75;;;6.15;;
49015;SDS011;34830;44.064;12.566;2023-06-19T02:14:03;10.55;;;6.22;;
49015;SDS011;34830;44.064;12.566;2023-06-19T02:16:29;7.15;;;6.13;;
49015;SDS011;34830;44.064;12.566;2023-06-19T02:18:54;8.52;;;6.32;;
49015;SDS011;34830;44.064;12.566;2023-06-19T02:21:22;7.53;;;6.30;;
49015;SDS011;34830;44.064;12.566;2023-06-19T02:23:48;12.52;;;6.55;;
49015;SDS011;34830;44.064;12.566;2023-06-19T02:26:13;10.70;;;6.72;;
49015;SDS011;34830;44.064;12.566;2023-06-19T02:28:39;8.77;;;6.10;;
49015;SDS011;34830;44.064;12.566;2023-06-19T02:31:05;13.52;;;6.63;;
49015;SDS011;34830;44.064;12.566;2023-06-19T02:33:31;12.35;;;5.95;;
49015;SDS011;34830;44.064;12.566;2023-06-19T02:35:57;15.60;;;7.10;;
49015;SDS011;34830;44.064;12.566;2023-06-19T02:38:27;9.15;;;6.57;;
49015;SDS011;34830;44.064;12.566;2023-06-19T02:40:56;9.13;;;6.75;;
49015;SDS011;34830;44.064;12.566;2023-06-19T02:43:26;10.77;;;6.37;;
49015;SDS011;34830;44.064;12.566;2023-06-19T02:45:52;9.32;;;6.63;;
49015;SDS011;34830;44.064;12.566;2023-06-19T02:48:18;13.07;;;6.93;;
49015;SDS011;34830;44.064;12.566;2023-06-19T02:50:44;11.80;;;5.82;;
49015;SDS011;34830;44.064;12.566;2023-06-19T02:53:11;9.02;;;6.68;;
49015;SDS011;34830;44.064;12.566;2023-06-19T02:55:36;8.93;;;6.72;;
49015;SDS011;34830;44.064;12.566;2023-06-19T02:58:03;7.60;;;6.25;;
49015;SDS011;34830;44.064;12.566;2023-06-19T03:00:29;7.68;;;6.20;;
49015;SDS011;34830;44.064;12.566;2023-06-19T03:02:54;8.45;;;7.25;;
49015;SDS011;34830;44.064;12.566;2023-06-19T03:05:20;8.90;;;6.95;;
49015;SDS011;34830;44.064;12.566;2023-06-19T03:07:46;7.78;;;5.78;;
49015;SDS011;34830;44.064;12.566;2023-06-19T03:10:12;11.38;;;6.95;;
49015;SDS011;34830;44.064;12.566;2023-06-19T03:12:37;9.23;;;6.40;;
49015;SDS011;34830;44.064;12.566;2023-06-19T03:15:03;11.70;;;6.60;;
49015;SDS011;34830;44.064;12.566;2023-06-19T03:17:32;10.95;;;7.15;;
49015;SDS011;34830;44.064;12.566;2023-06-19T03:19:57;10.88;;;6.50;;
49015;SDS011;34830;44.064;12.566;2023-06-19T03:22:24;9.70;;;6.70;;
49015;SDS011;34830;44.064;12.566;2023-06-19T03:24:50;10.40;;;6.65;;
49015;SDS011;34830;44.064;12.566;2023-06-19T03:27:20;11.82;;;6.43;;
49015;SDS011;34830;44.064;12.566;2023-06-19T03:29:46;10.85;;;6.30;;
49015;SDS011;34830;44.064;12.566;2023-06-19T03:32:16;8.50;;;5.93;;
49015;SDS011;34830;44.064;12.566;2023-06-19T03:34:42;7.95;;;6.45;;
49015;SDS011;34830;44.064;12.566;2023-06-19T03:37:10;9.77;;;6.53;;
49015;SDS011;34830;44.064;12.566;2023-06-19T03:39:36;10.60;;;6.88;;
49015;SDS011;34830;44.064;12.566;2023-06-19T03:42:05;15.52;;;7.25;;
49015;SDS011;34830;44.064;12.566;2023-06-19T03:44:31;10.32;;;7.00;;
49015;SDS011;34830;44.064;12.566;2023-06-19T03:46:58;8.35;;;6.78;;
49015;SDS011;34830;44.064;12.566;2023-06-19T03:49:23;9.32;;;6.65;;
49015;SDS011;34830;44.064;12.566;2023-06-19T03:51:49;11.35;;;6.82;;
49015;SDS011;34830;44.064;12.566;2023-06-19T03:54:15;9.60;;;6.60;;
49015;SDS011;34830;44.064;12.566;2023-06-19T03:56:41;9.65;;;6.78;;
49015;SDS011;34830;44.064;12.566;2023-06-19T03:59:07;10.90;;;6.80;;
49015;SDS011;34830;44.064;12.566;2023-06-19T04:01:33;11.55;;;6.13;;
49015;SDS011;34830;44.064;12.566;2023-06-19T04:03:58;9.43;;;7.40;;
49015;SDS011;34830;44.064;12.566;2023-06-19T04:06:25;10.05;;;7.18;;
49015;SDS011;34830;44.064;12.566;2023-06-19T04:08:51;10.13;;;6.25;;
49015;SDS011;34830;44.064;12.566;2023-06-19T04:11:17;12.90;;;7.05;;
49015;SDS011;34830;44.064;12.566;2023-06-19T04:13:44;9.27;;;7.32;;
49015;SDS011;34830;44.064;12.566;2023-06-19T04:16:11;14.70;;;7.05;;
49015;SDS011;34830;44.064;12.566;2023-06-19T04:18:37;8.63;;;6.22;;
49015;SDS011;34830;44.064;12.566;2023-06-19T04:21:03;7.38;;;5.97;;
49015;SDS011;34830;44.064;12.566;2023-06-19T04:23:31;9.13;;;5.40;;
49015;SDS011;34830;44.064;12.566;2023-06-19T04:25:57;7.55;;;6.00;;
49015;SDS011;34830;44.064;12.566;2023-06-19T04:28:23;8.32;;;6.10;;
49015;SDS011;34830;44.064;12.566;2023-06-19T04:30:48;10.77;;;6.72;;
49015;SDS011;34830;44.064;12.566;2023-06-19T04:33:14;9.07;;;6.03;;
49015;SDS011;34830;44.064;12.566;2023-06-19T04:35:40;8.57;;;6.07;;
49015;SDS011;34830;44.064;12.566;2023-06-19T04:38:06;8.77;;;6.38;;
49015;SDS011;34830;44.064;12.566;2023-06-19T04:40:32;8.18;;;5.80;;
49015;SDS011;34830;44.064;12.566;2023-06-19T04:42:58;8.60;;;6.43;;
49015;SDS011;34830;44.064;12.566;2023-06-19T04:45:24;14.85;;;6.22;;
49015;SDS011;34830;44.064;12.566;2023-06-19T04:47:50;13.23;;;7.28;;
49015;SDS011;34830;44.064;12.566;2023-06-19T04:50:15;8.25;;;6.22;;
49015;SDS011;34830;44.064;12.566;2023-06-19T04:52:42;8.23;;;5.72;;
49015;SDS011;34830;44.064;12.566;2023-06-19T04:55:07;14.80;;;6.32;;
49015;SDS011;34830;44.064;12.566;2023-06-19T04:57:36;10.40;;;6.78;;
49015;SDS011;34830;44.064;12.566;2023-06-19T05:00:06;12.43;;;7.07;;
49015;SDS011;34830;44.064;12.566;2023-06-19T05:02:32;12.48;;;6.10;;
49015;SDS011;34830;44.064;12.566;2023-06-19T05:04:59;9.25;;;5.70;;
49015;SDS011;34830;44.064;12.566;2023-06-19T05:07:31;10.07;;;5.82;;
49015;SDS011;34830;44.064;12.566;2023-06-19T05:09:57;10.13;;;5.38;;
49015;SDS011;34830;44.064;12.566;2023-06-19T05:12:23;8.88;;;5.55;;
49015;SDS011;34830;44.064;12.566;2023-06-19T05:14:49;7.80;;;5.20;;
49015;SDS011;34830;44.064;12.566;2023-06-19T05:17:15;8.80;;;5.40;;
49015;SDS011;34830;44.064;12.566;2023-06-19T05:19:41;12.40;;;5.30;;
49015;SDS011;34830;44.064;12.566;2023-06-19T05:22:06;8.13;;;4.75;;
49015;SDS011;34830;44.064;12.566;2023-06-19T05:24:32;6.97;;;5.20;;
49015;SDS011;34830;44.064;12.566;2023-06-19T05:26:58;9.57;;;5.05;;
49015;SDS011;34830;44.064;12.566;2023-06-19T05:29:24;10.88;;;4.75;;
49015;SDS011;34830;44.064;12.566;2023-06-19T05:31:50;6.75;;;4.63;;
49015;SDS011;34830;44.064;12.566;2023-06-19T05:34:16;7.78;;;4.90;;
49015;SDS011;34830;44.064;12.566;2023-06-19T05:36:42;11.07;;;5.50;;
49015;SDS011;34830;44.064;12.566;2023-06-19T05:39:10;8.23;;;4.93;;
49015;SDS011;34830;44.064;12.566;2023-06-19T05:41:36;11.93;;;5.20;;
49015;SDS011;34830;44.064;12.566;2023-06-19T05:44:02;8.60;;;4.68;;
49015;SDS011;34830;44.064;12.566;2023-06-19T05:46:27;11.48;;;4.72;;
49015;SDS011;34830;44.064;12.566;2023-06-19T05:48:53;7.95;;;4.28;;
49015;SDS011;34830;44.064;12.566;2023-06-19T05:51:20;5.78;;;4.80;;
49015;SDS011;34830;44.064;12.566;2023-06-19T05:53:46;7.65;;;4.18;;
49015;SDS011;34830;44.064;12.566;2023-06-19T05:56:12;8.98;;;4.45;;
49015;SDS011;34830;44.064;12.566;2023-06-19T05:58:38;9.20;;;4.03;;
49015;SDS011;34830;44.064;12.566;2023-06-19T06:01:04;10.00;;;4.15;;
49015;SDS011;34830;44.064;12.566;2023-06-19T06:03:30;7.38;;;4.03;;
49015;SDS011;34830;44.064;12.566;2023-06-19T06:05:57;7.43;;;4.03;;
49015;SDS011;34830;44.064;12.566;2023-06-19T06:08:28;9.13;;;3.63;;
49015;SDS011;34830;44.064;12.566;2023-06-19T06:10:55;6.15;;;3.05;;
49015;SDS011;34830;44.064;12.566;2023-06-19T06:13:20;5.65;;;3.40;;
49015;SDS011;34830;44.064;12.566;2023-06-19T06:15:46;6.43;;;3.50;;
49015;SDS011;34830;44.064;12.566;2023-06-19T06:18:12;5.72;;;3.65;;
49015;SDS011;34830;44.064;12.566;2023-06-19T06:20:38;5.53;;;2.42;;
49015;SDS011;34830;44.064;12.566;2023-06-19T06:23:03;8.98;;;3.03;;
49015;SDS011;34830;44.064;12.566;2023-06-19T06:25:29;7.63;;;2.83;;
49015;SDS011;34830;44.064;12.566;2023-06-19T06:27:55;7.22;;;3.03;;
49015;SDS011;34830;44.064;12.566;2023-06-19T06:30:21;4.85;;;3.00;;
49015;SDS011;34830;44.064;12.566;2023-06-19T06:32:48;9.65;;;3.05;;
49015;SDS011;34830;44.064;12.566;2023-06-19T06:35:13;4.38;;;2.60;;
49015;SDS011;34830;44.064;12.566;2023-06-19T06:37:39;5.93;;;2.60;;
49015;SDS011;34830;44.064;12.566;2023-06-19T06:40:06;4.85;;;2.70;;
49015;SDS011;34830;44.064;12.566;2023-06-19T06:42:35;3.55;;;2.38;;
49015;SDS011;34830;44.064;12.566;2023-06-19T06:45:00;5.25;;;2.47;;
49015;SDS011;34830;44.064;12.566;2023-06-19T06:47:26;4.10;;;2.22;;
49015;SDS011;34830;44.064;12.566;2023-06-19T06:49:52;4.95;;;2.30;;
49015;SDS011;34830;44.064;12.566;2023-06-19T06:52:18;4.40;;;2.72;;
49015;SDS011;34830;44.064;12.566;2023-06-19T06:54:43;4.72;;;2.75;;
49015;SDS011;34830;44.064;12.566;2023-06-19T06:57:09;3.28;;;2.38;;
49015;SDS011;34830;44.064;12.566;2023-06-19T06:59:35;7.30;;;2.42;;
49015;SDS011;34830;44.064;12.566;2023-06-19T07:02:00;5.18;;;2.58;;
49015;SDS011;34830;44.064;12.566;2023-06-19T07:04:26;6.68;;;2.35;;
49015;SDS011;34830;44.064;12.566;2023-06-19T07:06:52;6.78;;;2.70;;
49015;SDS011;34830;44.064;12.566;2023-06-19T07:09:18;5.95;;;2.92;;
49015;SDS011;34830;44.064;12.566;2023-06-19T07:11:43;7.75;;;3.33;;
49015;SDS011;34830;44.064;12.566;2023-06-19T07:14:09;4.47;;;2.78;;
49015;SDS011;34830;44.064;12.566;2023-06-19T07:16:35;8.85;;;2.63;;
49015;SDS011;34830;44.064;12.566;2023-06-19T07:19:01;6.53;;;2.67;;
49015;SDS011;34830;44.064;12.566;2023-06-19T07:21:27;5.22;;;2.58;;
49015;SDS011;34830;44.064;12.566;2023-06-19T07:23:53;4.47;;;2.40;;
49015;SDS011;34830;44.064;12.566;2023-06-19T07:26:19;6.85;;;2.30;;
49015;SDS011;34830;44.064;12.566;2023-06-19T07:28:44;4.40;;;2.35;;
49015;SDS011;34830;44.064;12.566;2023-06-19T07:31:10;3.97;;;2.28;;
49015;SDS011;34830;44.064;12.566;2023-06-19T07:33:36;5.13;;;2.90;;
49015;SDS011;34830;44.064;12.566;2023-06-19T07:36:02;3.13;;;2.28;;
49015;SDS011;34830;44.064;12.566;2023-06-19T07:38:30;5.35;;;3.13;;
49015;SDS011;34830;44.064;12.566;2023-06-19T07:40:56;6.43;;;2.90;;
49015;SDS011;34830;44.064;12.566;2023-06-19T07:43:22;6.15;;;2.60;;
49015;SDS011;34830;44.064;12.566;2023-06-19T07:45:48;6.15;;;2.45;;
49015;SDS011;34830;44.064;12.566;2023-06-19T07:48:14;4.82;;;2.38;;
49015;SDS011;34830;44.064;12.566;2023-06-19T07:50:40;9.13;;;3.00;;
49015;SDS011;34830;44.064;12.566;2023-06-19T07:53:06;6.88;;;3.58;;
49015;SDS011;34830;44.064;12.566;2023-06-19T07:55:32;7.05;;;2.70;;
49015;SDS011;34830;44.064;12.566;2023-06-19T07:57:57;6.60;;;2.58;;
49015;SDS011;34830;44.064;12.566;2023-06-19T08:00:24;4.57;;;2.50;;
49015;SDS011;34830;44.064;12.566;2023-06-19T08:02:49;5.35;;;2.70;;
49015;SDS011;34830;44.064;12.566;2023-06-19T08:05:15;5.28;;;2.53;;
49015;SDS011;34830;44.064;12.566;2023-06-19T08:07:41;6.50;;;3.63;;
49015;SDS011;34830;44.064;12.566;2023-06-19T08:10:07;4.07;;;2.50;;
49015;SDS011;34830;44.064;12.566;2023-06-19T08:12:33;6.72;;;2.53;;
49015;SDS011;34830;44.064;12.566;2023-06-19T08:14:58;6.35;;;2.92;;
49015;SDS011;34830;44.064;12.566;2023-06-19T08:17:24;6.00;;;2.88;;
49015;SDS011;34830;44.064;12.566;2023-06-19T08:19:50;5.35;;;2.92;;
49015;SDS011;34830;44.064;12.566;2023-06-19T08:22:16;6.15;;;2.90;;
49015;SDS011;34830;44.064;12.566;2023-06-19T08:24:41;6.05;;;2.65;;
49015;SDS011;34830;44.064;12.566;2023-06-19T08:27:07;9.65;;;2.50;;
49015;SDS011;34830;44.064;12.566;2023-06-19T08:29:33;5.70;;;2.85;;
49015;SDS011;34830;44.064;12.566;2023-06-19T08:31:59;9.82;;;3.38;;
49015;SDS011;34830;44.064;12.566;2023-06-19T08:34:25;5.60;;;3.38;;
49015;SDS011;34830;44.064;12.566;2023-06-19T08:36:51;7.07;;;3.22;;
49015;SDS011;34830;44.064;12.566;2023-06-19T08:39:17;6.55;;;3.63;;
49015;SDS011;34830;44.064;12.566;2023-06-19T08:41:42;7.57;;;3.25;;
49015;SDS011;34830;44.064;12.566;2023-06-19T08:44:08;7.50;;;3.08;;
49015;SDS011;34830;44.064;12.566;2023-06-19T08:46:35;15.77;;;3.42;;
49015;SDS011;34830;44.064;12.566;2023-06-19T08:49:02;4.05;;;3.22;;
49015;SDS011;34830;44.064;12.566;2023-06-19T08:51:28;7.97;;;3.53;;
49015;SDS011;34830;44.064;12.566;2023-06-19T08:53:56;7.43;;;3.53;;
49015;SDS011;34830;44.064;12.566;2023-06-19T08:56:22;5.57;;;3.40;;
49015;SDS011;34830;44.064;12.566;2023-06-19T08:58:48;8.73;;;3.72;;
49015;SDS011;34830;44.064;12.566;2023-06-19T09:01:18;8.95;;;3.67;;
49015;SDS011;34830;44.064;12.566;2023-06-19T09:03:45;4.45;;;3.10;;
49015;SDS011;34830;44.064;12.566;2023-06-19T09:06:15;7.15;;;3.15;;
49015;SDS011;34830;44.064;12.566;2023-06-19T09:08:44;3.25;;;2.75;;
49015;SDS011;34830;44.064;12.566;2023-06-19T09:11:11;6.55;;;3.22;;
49015;SDS011;34830;44.064;12.566;2023-06-19T09:13:36;5.70;;;3.35;;
49015;SDS011;34830;44.064;12.566;2023-06-19T09:16:04;6.80;;;3.67;;
49015;SDS011;34830;44.064;12.566;2023-06-19T09:18:30;5.45;;;3.28;;
49015;SDS011;34830;44.064;12.566;2023-06-19T09:20:56;6.40;;;3.25;;
49015;SDS011;34830;44.064;12.566;2023-06-19T09:23:23;5.85;;;2.90;;
49015;SDS011;34830;44.064;12.566;2023-06-19T09:25:52;5.78;;;3.10;;
49015;SDS011;34830;44.064;12.566;2023-06-19T09:28:19;6.90;;;2.80;;
49015;SDS011;34830;44.064;12.566;2023-06-19T09:30:52;5.20;;;3.08;;
49015;SDS011;34830;44.064;12.566;2023-06-19T09:33:17;6.03;;;3.53;;
49015;SDS011;34830;44.064;12.566;2023-06-19T09:35:43;5.25;;;3.22;;
49015;SDS011;34830;44.064;12.566;2023-06-19T09:38:09;4.65;;;2.88;;
49015;SDS011;34830;44.064;12.566;2023-06-19T09:40:35;5.30;;;2.85;;
49015;SDS011;34830;44.064;12.566;2023-06-19T09:43:01;7.63;;;3.08;;
49015;SDS011;34830;44.064;12.566;2023-06-19T09:45:29;5.78;;;3.72;;
49015;SDS011;34830;44.064;12.566;2023-06-19T09:47:56;12.90;;;4.10;;
49015;SDS011;34830;44.064;12.566;2023-06-19T09:50:24;6.70;;;3.60;;
49015;SDS011;34830;44.064;12.566;2023-06-19T09:52:52;5.22;;;3.53;;
49015;SDS011;34830;44.064;12.566;2023-06-19T09:55:20;7.07;;;3.40;;
49015;SDS011;34830;44.064;12.566;2023-06-19T09:57:49;14.35;;;4.00;;
49015;SDS011;34830;44.064;12.566;2023-06-19T10:00:15;8.68;;;3.90;;
49015;SDS011;34830;44.064;12.566;2023-06-19T10:02:47;5.65;;;3.90;;
49015;SDS011;34830;44.064;12.566;2023-06-19T10:05:13;9.10;;;3.45;;
49015;SDS011;34830;44.064;12.566;2023-06-19T10:07:46;4.97;;;2.90;;
49015;SDS011;34830;44.064;12.566;2023-06-19T10:10:22;5.72;;;3.40;;
49015;SDS011;34830;44.064;12.566;2023-06-19T10:12:48;7.35;;;3.63;;
49015;SDS011;34830;44.064;12.566;2023-06-19T10:15:15;7.32;;;3.50;;
49015;SDS011;34830;44.064;12.566;2023-06-19T10:17:43;6.28;;;3.28;;
49015;SDS011;34830;44.064;12.566;2023-06-19T10:20:19;9.30;;;3.90;;
49015;SDS011;34830;44.064;12.566;2023-06-19T10:22:52;5.78;;;3.58;;
49015;SDS011;34830;44.064;12.566;2023-06-19T10:25:22;6.90;;;3.65;;
49015;SDS011;34830;44.064;12.566;2023-06-19T10:27:47;7.07;;;3.70;;
49015;SDS011;34830;44.064;12.566;2023-06-19T10:30:16;5.57;;;3.38;;
49015;SDS011;34830;44.064;12.566;2023-06-19T10:32:43;5.80;;;3.67;;
49015;SDS011;34830;44.064;12.566;2023-06-19T10:35:12;6.40;;;3.67;;
49015;SDS011;34830;44.064;12.566;2023-06-19T10:37:38;7.97;;;3.67;;
49015;SDS011;34830;44.064;12.566;2023-06-19T10:40:04;8.60;;;3.33;;
49015;SDS011;34830;44.064;12.566;2023-06-19T10:42:34;5.65;;;3.30;;
49015;SDS011;34830;44.064;12.566;2023-06-19T10:45:03;6.53;;;3.30;;
49015;SDS011;34830;44.064;12.566;2023-06-19T10:49:56;14.20;;;4.38;;
49015;SDS011;34830;44.064;12.566;2023-06-19T10:52:22;17.55;;;3.75;;
49015;SDS011;34830;44.064;12.566;2023-06-19T10:54:55;8.05;;;4.65;;
49015;SDS011;34830;44.064;12.566;2023-06-19T10:57:30;9.43;;;3.67;;
49015;SDS011;34830;44.064;12.566;2023-06-19T10:59:57;5.82;;;3.15;;
49015;SDS011;34830;44.064;12.566;2023-06-19T11:02:24;7.50;;;3.13;;
49015;SDS011;34830;44.064;12.566;2023-06-19T11:04:54;8.40;;;3.35;;
49015;SDS011;34830;44.064;12.566;2023-06-19T11:07:20;9.85;;;3.78;;
49015;SDS011;34830;44.064;12.566;2023-06-19T11:09:45;4.05;;;3.30;;
49015;SDS011;34830;44.064;12.566;2023-06-19T11:12:11;6.18;;;3.97;;
49015;SDS011;34830;44.064;12.566;2023-06-19T11:14:37;6.57;;;3.42;;
49015;SDS011;34830;44.064;12.566;2023-06-19T11:17:05;6.53;;;3.28;;
49015;SDS011;34830;44.064;12.566;2023-06-19T11:19:31;6.88;;;3.50;;
49015;SDS011;34830;44.064;12.566;2023-06-19T11:21:59;4.53;;;3.22;;
49015;SDS011;34830;44.064;12.566;2023-06-19T11:24:28;6.10;;;4.30;;
49015;SDS011;34830;44.064;12.566;2023-06-19T11:26:55;7.10;;;3.08;;
49015;SDS011;34830;44.064;12.566;2023-06-19T11:29:30;5.32;;;3.80;;
49015;SDS011;34830;44.064;12.566;2023-06-19T11:32:11;7.72;;;3.63;;
49015;SDS011;34830;44.064;12.566;2023-06-19T11:34:39;5.47;;;3.55;;
49015;SDS011;34830;44.064;12.566;2023-06-19T11:37:15;6.82;;;3.60;;
49015;SDS011;34830;44.064;12.566;2023-06-19T11:39:45;4.20;;;3.08;;
49015;SDS011;34830;44.064;12.566;2023-06-19T11:42:11;8.82;;;3.70;;
49015;SDS011;34830;44.064;12.566;2023-06-19T11:44:53;12.68;;;3.22;;
49015;SDS011;34830;44.064;12.566;2023-06-19T11:47:19;5.18;;;3.40;;
49015;SDS011;34830;44.064;12.566;2023-06-19T11:49:47;7.47;;;3.83;;
49015;SDS011;34830;44.064;12.566;2023-06-19T11:52:13;6.95;;;3.85;;
49015;SDS011;34830;44.064;12.566;2023-06-19T11:54:39;15.57;;;5.55;;
49015;SDS011;34830;44.064;12.566;2023-06-19T11:57:05;11.27;;;4.10;;
49015;SDS011;34830;44.064;12.566;2023-06-19T11:59:31;7.53;;;4.05;;
49015;SDS011;34830;44.064;12.566;2023-06-19T12:01:56;7.22;;;3.90;;
49015;SDS011;34830;44.064;12.566;2023-06-19T12:04:24;6.40;;;3.88;;
49015;SDS011;34830;44.064;12.566;2023-06-19T12:06:49;5.63;;;2.97;;
49015;SDS011;34830;44.064;12.566;2023-06-19T12:09:15;6.40;;;4.00;;
49015;SDS011;34830;44.064;12.566;2023-06-19T12:11:41;5.55;;;3.20;;
49015;SDS011;34830;44.064;12.566;2023-06-19T12:14:07;7.47;;;3.17;;
49015;SDS011;34830;44.064;12.566;2023-06-19T12:16:32;6.82;;;3.20;;
49015;SDS011;34830;44.064;12.566;2023-06-19T12:18:58;4.38;;;3.35;;
49015;SDS011;34830;44.064;12.566;2023-06-19T12:21:24;11.05;;;3.95;;
49015;SDS011;34830;44.064;12.566;2023-06-19T12:23:50;7.80;;;3.85;;
49015;SDS011;34830;44.064;12.566;2023-06-19T12:26:15;6.25;;;3.60;;
49015;SDS011;34830;44.064;12.566;2023-06-19T12:28:41;5.65;;;3.13;;
49015;SDS011;34830;44.064;12.566;2023-06-19T12:31:07;6.78;;;3.53;;
49015;SDS011;34830;44.064;12.566;2023-06-19T12:33:32;5.05;;;3.17;;
49015;SDS011;34830;44.064;12.566;2023-06-19T12:35:59;5.70;;;3.03;;
49015;SDS011;34830;44.064;12.566;2023-06-19T12:38:25;7.25;;;3.33;;
49015;SDS011;34830;44.064;12.566;2023-06-19T12:40:52;6.85;;;3.78;;
49015;SDS011;34830;44.064;12.566;2023-06-19T12:43:17;8.30;;;3.63;;
49015;SDS011;34830;44.064;12.566;2023-06-19T12:45:43;9.55;;;3.75;;
49015;SDS011;34830;44.064;12.566;2023-06-19T12:48:10;105.53;;;11.93;;
49015;SDS011;34830;44.064;12.566;2023-06-19T12:50:35;25.80;;;5.07;;
49015;SDS011;34830;44.064;12.566;2023-06-19T12:53:01;5.43;;;2.90;;
49015;SDS011;34830;44.064;12.566;2023-06-19T12:55:27;10.10;;;3.63;;
49015;SDS011;34830;44.064;12.566;2023-06-19T12:57:53;5.57;;;2.97;;
49015;SDS011;34830;44.064;12.566;2023-06-19T13:00:19;6.72;;;3.13;;
49015;SDS011;34830;44.064;12.566;2023-06-19T13:02:44;10.02;;;3.28;;
49015;SDS011;34830;44.064;12.566;2023-06-19T13:05:12;7.70;;;3.30;;
49015;SDS011;34830;44.064;12.566;2023-06-19T13:07:37;6.63;;;3.13;;
49015;SDS011;34830;44.064;12.566;2023-06-19T13:10:03;9.60;;;2.92;;
49015;SDS011;34830;44.064;12.566;2023-06-19T13:12:31;7.53;;;3.30;;
49015;SDS011;34830;44.064;12.566;2023-06-19T13:14:57;5.00;;;3.30;;
49015;SDS011;34830;44.064;12.566;2023-06-19T13:17:23;5.43;;;3.10;;
49015;SDS011;34830;44.064;12.566;2023-06-19T13:19:49;6.88;;;3.17;;
49015;SDS011;34830;44.064;12.566;2023-06-19T13:22:15;7.38;;;2.83;;
49015;SDS011;34830;44.064;12.566;2023-06-19T13:24:40;5.45;;;3.05;;
49015;SDS011;34830;44.064;12.566;2023-06-19T13:27:06;4.22;;;3.10;;
49015;SDS011;34830;44.064;12.566;2023-06-19T13:29:32;31.50;;;5.65;;
49015;SDS011;34830;44.064;12.566;2023-06-19T13:31:57;22.33;;;3.80;;
49015;SDS011;34830;44.064;12.566;2023-06-19T13:34:23;19.17;;;4.72;;
49015;SDS011;34830;44.064;12.566;2023-06-19T13:36:49;10.32;;;2.95;;
49015;SDS011;34830;44.064;12.566;2023-06-19T13:39:15;19.85;;;4.43;;
49015;SDS011;34830;44.064;12.566;2023-06-19T13:41:40;15.77;;;3.60;;
49015;SDS011;34830;44.064;12.566;2023-06-19T13:44:06;5.50;;;2.80;;
49015;SDS011;34830;44.064;12.566;2023-06-19T13:46:32;4.32;;;3.08;;
49015;SDS011;34830;44.064;12.566;2023-06-19T13:48:58;5.00;;;3.17;;
49015;SDS011;34830;44.064;12.566;2023-06-19T13:51:24;8.52;;;3.20;;
49015;SDS011;34830;44.064;12.566;2023-06-19T13:53:50;6.43;;;3.08;;
49015;SDS011;34830;44.064;12.566;2023-06-19T13:56:16;5.50;;;3.17;;
49015;SDS011;34830;44.064;12.566;2023-06-19T13:58:42;5.10;;;3.40;;
49015;SDS011;34830;44.064;12.566;2023-06-19T14:01:08;12.95;;;3.25;;
49015;SDS011;34830;44.064;12.566;2023-06-19T14:03:34;8.38;;;3.13;;
49015;SDS011;34830;44.064;12.566;2023-06-19T14:05:59;4.57;;;2.95;;
49015;SDS011;34830;44.064;12.566;2023-06-19T14:08:25;9.60;;;3.67;;
49015;SDS011;34830;44.064;12.566;2023-06-19T14:10:51;5.28;;;2.95;;
49015;SDS011;34830;44.064;12.566;2023-06-19T14:13:17;6.35;;;2.80;;
49015;SDS011;34830;44.064;12.566;2023-06-19T14:15:42;6.40;;;3.63;;
49015;SDS011;34830;44.064;12.566;2023-06-19T14:18:08;5.03;;;3.33;;
49015;SDS011;34830;44.064;12.566;2023-06-19T14:20:34;7.53;;;2.58;;
49015;SDS011;34830;44.064;12.566;2023-06-19T14:23:00;5.32;;;2.38;;
49015;SDS011;34830;44.064;12.566;2023-06-19T14:25:26;5.28;;;3.10;;
49015;SDS011;34830;44.064;12.566;2023-06-19T14:27:51;4.35;;;2.97;;
49015;SDS011;34830;44.064;12.566;2023-06-19T14:30:18;8.25;;;3.65;;